Evans, Washington
Current Conditions -  °F | °C
As of 1:00 PM on Tuesday 21 Oct 2014 (Local Time) from CYCG Reporting Station
Broken Clouds Broken Clouds  
Wind Chill: 57°   Ceiling: 4000
Heat Index: 57°   Visibility: 15mi
Dew Point: 45°   Wind: 10mph
Humidity: 63%   Direction: 190°S
Pressure: 29.84"   Gusts: NA
Location:  48.71°N, 118.03°W
Report Text: CYCG 212000Z 19009KT 15SM FEW020 BKN040 BKN060 14/07 A2984 RMK SC1CU4SC2 SLP108 DENSITY ALT 2000FT
Loading
Personal Weather Stations






























Interactive Weather Map New forecast layout! Learn more

10-Day Weather Forecast

Advertisements
Track Severe Weather on mobile